sensor_id;sensor_type;location;lat;lon;timestamp;pressure;altitude;pressure_sealevel;temperature;humidity
20350;BME280;10332;50.208;18.988;2023-08-20T00:01:28;98357.16;;;25.26;86.44
20350;BME280;10332;50.208;18.988;2023-08-20T00:03:56;98361.97;;;25.15;87.54
20350;BME280;10332;50.208;18.988;2023-08-20T00:06:25;98358.72;;;25.20;87.32
20350;BME280;10332;50.208;18.988;2023-08-20T00:08:53;98363.09;;;25.06;88.49
20350;BME280;10332;50.208;18.988;2023-08-20T00:11:20;98361.44;;;25.05;87.95
20350;BME280;10332;50.208;18.988;2023-08-20T00:13:48;98366.00;;;24.90;89.47
20350;BME280;10332;50.208;18.988;2023-08-20T00:16:15;98356.78;;;24.92;89.34
20350;BME280;10332;50.208;18.988;2023-08-20T00:18:43;98358.00;;;24.90;89.55
20350;BME280;10332;50.208;18.988;2023-08-20T00:21:11;98354.72;;;24.73;90.71
20350;BME280;10332;50.208;18.988;2023-08-20T00:23:39;98353.63;;;24.53;93.06
20350;BME280;10332;50.208;18.988;2023-08-20T00:26:07;98351.13;;;24.66;91.03
20350;BME280;10332;50.208;18.988;2023-08-20T00:28:34;98349.78;;;24.55;92.35
20350;BME280;10332;50.208;18.988;2023-08-20T00:31:04;98353.72;;;24.59;91.85
20350;BME280;10332;50.208;18.988;2023-08-20T00:33:32;98350.38;;;24.36;94.23
20350;BME280;10332;50.208;18.988;2023-08-20T00:35:59;98344.03;;;24.37;93.93
20350;BME280;10332;50.208;18.988;2023-08-20T00:38:27;98345.56;;;24.46;92.94
20350;BME280;10332;50.208;18.988;2023-08-20T00:40:54;98342.22;;;24.44;93.33
20350;BME280;10332;50.208;18.988;2023-08-20T00:43:22;98343.91;;;24.30;94.75
20350;BME280;10332;50.208;18.988;2023-08-20T00:45:49;98346.59;;;24.45;93.16
20350;BME280;10332;50.208;18.988;2023-08-20T00:48:18;98338.88;;;24.36;94.52
20350;BME280;10332;50.208;18.988;2023-08-20T00:50:45;98344.38;;;24.34;94.67
20350;BME280;10332;50.208;18.988;2023-08-20T00:53:14;98333.16;;;24.09;96.35
20350;BME280;10332;50.208;18.988;2023-08-20T00:55:42;98344.44;;;24.26;94.58
20350;BME280;10332;50.208;18.988;2023-08-20T00:58:13;98331.94;;;24.26;94.64
20350;BME280;10332;50.208;18.988;2023-08-20T01:00:42;98339.47;;;24.23;95.37
20350;BME280;10332;50.208;18.988;2023-08-20T01:03:09;98337.38;;;24.18;95.55
20350;BME280;10332;50.208;18.988;2023-08-20T01:05:46;98338.94;;;24.13;96.63
20350;BME280;10332;50.208;18.988;2023-08-20T01:08:29;98333.69;;;24.19;96.01
20350;BME280;10332;50.208;18.988;2023-08-20T01:11:12;98344.19;;;24.21;95.27
20350;BME280;10332;50.208;18.988;2023-08-20T01:13:44;98339.47;;;24.23;95.50
20350;BME280;10332;50.208;18.988;2023-08-20T01:16:13;98339.31;;;24.10;97.20
20350;BME280;10332;50.208;18.988;2023-08-20T01:18:40;98343.78;;;24.24;94.99
20350;BME280;10332;50.208;18.988;2023-08-20T01:22:11;98341.31;;;24.07;97.30
20350;BME280;10332;50.208;18.988;2023-08-20T01:28:28;98339.84;;;24.20;95.75
20350;BME280;10332;50.208;18.988;2023-08-20T01:31:00;98340.78;;;24.27;95.71
20350;BME280;10332;50.208;18.988;2023-08-20T01:33:31;98338.00;;;24.35;96.39
20350;BME280;10332;50.208;18.988;2023-08-20T01:35:59;98336.38;;;24.34;96.31
20350;BME280;10332;50.208;18.988;2023-08-20T01:38:26;98345.56;;;24.31;96.20
20350;BME280;10332;50.208;18.988;2023-08-20T01:40:54;98343.00;;;24.38;96.49
20350;BME280;10332;50.208;18.988;2023-08-20T01:43:22;98338.00;;;24.35;96.67
20350;BME280;10332;50.208;18.988;2023-08-20T01:45:49;98343.06;;;24.30;96.55
20350;BME280;10332;50.208;18.988;2023-08-20T01:48:17;98342.16;;;24.23;96.93
20350;BME280;10332;50.208;18.988;2023-08-20T01:50:44;98341.03;;;24.17;97.06
20350;BME280;10332;50.208;18.988;2023-08-20T01:53:13;98349.22;;;24.16;97.32
20350;BME280;10332;50.208;18.988;2023-08-20T01:55:40;98346.03;;;24.20;96.65
20350;BME280;10332;50.208;18.988;2023-08-20T01:58:07;98346.66;;;24.22;96.73
20350;BME280;10332;50.208;18.988;2023-08-20T02:00:35;98346.28;;;24.25;97.06
20350;BME280;10332;50.208;18.988;2023-08-20T02:03:02;98343.78;;;24.24;96.75
20350;BME280;10332;50.208;18.988;2023-08-20T02:05:31;98346.22;;;24.19;97.68
20350;BME280;10332;50.208;18.988;2023-08-20T02:07:58;98342.72;;;24.18;97.08
20350;BME280;10332;50.208;18.988;2023-08-20T02:10:26;98344.09;;;23.99;98.32
20350;BME280;10332;50.208;18.988;2023-08-20T02:12:53;98349.44;;;23.99;98.03
20350;BME280;10332;50.208;18.988;2023-08-20T02:15:21;98337.56;;;24.02;97.18
20350;BME280;10332;50.208;18.988;2023-08-20T02:17:48;98341.31;;;24.07;97.43
20350;BME280;10332;50.208;18.988;2023-08-20T02:20:15;98343.00;;;24.09;97.54
20350;BME280;10332;50.208;18.988;2023-08-20T02:22:43;98342.31;;;24.06;97.17
20350;BME280;10332;50.208;18.988;2023-08-20T02:25:11;98334.91;;;24.02;97.46
20350;BME280;10332;50.208;18.988;2023-08-20T02:27:38;98340.69;;;24.05;96.75
20350;BME280;10332;50.208;18.988;2023-08-20T02:30:06;98340.41;;;24.00;97.14
20350;BME280;10332;50.208;18.988;2023-08-20T02:32:34;98342.25;;;24.00;96.89
20350;BME280;10332;50.208;18.988;2023-08-20T02:35:02;98332.50;;;23.92;96.99
20350;BME280;10332;50.208;18.988;2023-08-20T02:37:32;98330.94;;;23.83;98.10
20350;BME280;10332;50.208;18.988;2023-08-20T02:40:00;98330.94;;;23.83;97.76
20350;BME280;10332;50.208;18.988;2023-08-20T02:42:28;98338.56;;;23.86;97.33
20350;BME280;10332;50.208;18.988;2023-08-20T02:44:55;98331.13;;;23.82;97.75
20350;BME280;10332;50.208;18.988;2023-08-20T02:47:23;98338.19;;;23.89;96.81
20350;BME280;10332;50.208;18.988;2023-08-20T02:49:50;98336.06;;;23.85;97.00
20350;BME280;10332;50.208;18.988;2023-08-20T02:52:17;98336.53;;;23.88;96.39
20350;BME280;10332;50.208;18.988;2023-08-20T02:54:45;98348.84;;;23.89;96.14
20350;BME280;10332;50.208;18.988;2023-08-20T02:57:12;98350.50;;;23.90;95.83
20350;BME280;10332;50.208;18.988;2023-08-20T02:59:40;98348.50;;;23.92;95.66
20350;BME280;10332;50.208;18.988;2023-08-20T03:02:07;98359.81;;;23.94;95.46
20350;BME280;10332;50.208;18.988;2023-08-20T03:04:35;98364.13;;;23.95;95.04
20350;BME280;10332;50.208;18.988;2023-08-20T03:07:02;98368.25;;;23.98;94.52
20350;BME280;10332;50.208;18.988;2023-08-20T03:09:30;98363.75;;;23.98;94.30
20350;BME280;10332;50.208;18.988;2023-08-20T03:11:57;98370.78;;;23.99;94.25
20350;BME280;10332;50.208;18.988;2023-08-20T03:14:25;98372.59;;;23.99;93.90
20350;BME280;10332;50.208;18.988;2023-08-20T03:16:54;98374.44;;;23.98;93.72
20350;BME280;10332;50.208;18.988;2023-08-20T03:19:22;98368.25;;;23.98;93.57
20350;BME280;10332;50.208;18.988;2023-08-20T03:21:49;98368.09;;;23.99;93.41
20350;BME280;10332;50.208;18.988;2023-08-20T03:24:17;98368.09;;;23.99;93.16
20350;BME280;10332;50.208;18.988;2023-08-20T03:26:44;98376.13;;;23.99;92.90
20350;BME280;10332;50.208;18.988;2023-08-20T03:29:13;98377.09;;;23.98;92.72
20350;BME280;10332;50.208;18.988;2023-08-20T03:31:40;98377.47;;;23.95;92.72
20350;BME280;10332;50.208;18.988;2023-08-20T03:34:08;98383.63;;;23.96;92.64
20350;BME280;10332;50.208;18.988;2023-08-20T03:36:36;98375.63;;;23.96;92.59
20350;BME280;10332;50.208;18.988;2023-08-20T03:39:04;98378.31;;;23.96;92.48
20350;BME280;10332;50.208;18.988;2023-08-20T03:41:31;98380.97;;;23.96;92.36
20350;BME280;10332;50.208;18.988;2023-08-20T03:43:59;98385.66;;;23.94;92.77
20350;BME280;10332;50.208;18.988;2023-08-20T03:46:27;98383.38;;;23.91;92.68
20350;BME280;10332;50.208;18.988;2023-08-20T03:48:54;98375.53;;;23.89;93.08
20350;BME280;10332;50.208;18.988;2023-08-20T03:51:21;98377.19;;;23.90;93.14
20350;BME280;10332;50.208;18.988;2023-08-20T03:53:49;98384.28;;;23.83;93.94
20350;BME280;10332;50.208;18.988;2023-08-20T03:56:17;98385.28;;;23.82;93.46
20350;BME280;10332;50.208;18.988;2023-08-20T03:58:45;98380.38;;;23.71;95.26
20350;BME280;10332;50.208;18.988;2023-08-20T04:01:13;98376.06;;;23.70;95.34
20350;BME280;10332;50.208;18.988;2023-08-20T04:03:40;98378.59;;;23.63;96.23
20350;BME280;10332;50.208;18.988;2023-08-20T04:06:08;98377.88;;;23.69;94.90
20350;BME280;10332;50.208;18.988;2023-08-20T04:08:35;98372.75;;;23.68;95.20
20350;BME280;10332;50.208;18.988;2023-08-20T04:11:03;98373.38;;;23.70;94.81
20350;BME280;10332;50.208;18.988;2023-08-20T04:13:31;98371.63;;;23.62;96.18
20350;BME280;10332;50.208;18.988;2023-08-20T04:15:58;98374.22;;;23.70;94.80
20350;BME280;10332;50.208;18.988;2023-08-20T04:18:26;98373.19;;;23.71;94.86
20350;BME280;10332;50.208;18.988;2023-08-20T04:20:54;98379.34;;;23.72;94.46
20350;BME280;10332;50.208;18.988;2023-08-20T04:23:22;98376.53;;;23.73;94.09
20350;BME280;10332;50.208;18.988;2023-08-20T04:25:50;98375.28;;;23.61;95.85
20350;BME280;10332;50.208;18.988;2023-08-20T04:28:17;98383.09;;;23.63;95.32
20350;BME280;10332;50.208;18.988;2023-08-20T04:30:45;98383.88;;;23.48;97.51
20350;BME280;10332;50.208;18.988;2023-08-20T04:33:12;98377.00;;;23.54;96.14
20350;BME280;10332;50.208;18.988;2023-08-20T04:35:40;98386.19;;;23.51;96.84
20350;BME280;10332;50.208;18.988;2023-08-20T04:38:07;98382.47;;;23.61;95.70
20350;BME280;10332;50.208;18.988;2023-08-20T04:40:34;98390.75;;;23.66;95.28
20350;BME280;10332;50.208;18.988;2023-08-20T04:43:02;98389.19;;;23.71;94.93
20350;BME280;10332;50.208;18.988;2023-08-20T04:45:29;98401.63;;;23.79;94.63
20350;BME280;10332;50.208;18.988;2023-08-20T04:47:57;98405.88;;;23.88;94.46
20350;BME280;10332;50.208;18.988;2023-08-20T04:50:25;98402.47;;;23.79;95.60
20350;BME280;10332;50.208;18.988;2023-08-20T04:52:53;98408.53;;;23.88;94.49
20350;BME280;10332;50.208;18.988;2023-08-20T04:55:21;98406.00;;;23.95;94.02
20350;BME280;10332;50.208;18.988;2023-08-20T04:57:49;98412.06;;;24.03;93.41
20350;BME280;10332;50.208;18.988;2023-08-20T05:00:17;98408.19;;;24.06;93.63
20350;BME280;10332;50.208;18.988;2023-08-20T05:02:44;98404.53;;;24.07;93.52
20350;BME280;10332;50.208;18.988;2023-08-20T05:05:12;98407.84;;;24.09;93.69
20350;BME280;10332;50.208;18.988;2023-08-20T05:07:39;98407.94;;;24.16;93.40
20350;BME280;10332;50.208;18.988;2023-08-20T05:10:08;98410.78;;;24.14;93.58
20350;BME280;10332;50.208;18.988;2023-08-20T05:12:36;98413.38;;;24.22;93.04
20350;BME280;10332;50.208;18.988;2023-08-20T05:15:05;98416.16;;;24.29;92.41
20350;BME280;10332;50.208;18.988;2023-08-20T05:17:32;98413.13;;;24.32;92.46
20350;BME280;10332;50.208;18.988;2023-08-20T05:20:00;98409.09;;;24.36;92.13
20350;BME280;10332;50.208;18.988;2023-08-20T05:22:27;98411.75;;;24.36;92.27
20350;BME280;10332;50.208;18.988;2023-08-20T05:24:55;98410.00;;;24.43;92.08
20350;BME280;10332;50.208;18.988;2023-08-20T05:27:22;98427.41;;;24.39;92.62
20350;BME280;10332;50.208;18.988;2023-08-20T05:29:49;98416.97;;;24.44;92.16
20350;BME280;10332;50.208;18.988;2023-08-20T05:32:17;98424.25;;;24.50;91.89
20350;BME280;10332;50.208;18.988;2023-08-20T05:34:45;98426.47;;;24.61;91.14
20350;BME280;10332;50.208;18.988;2023-08-20T05:37:12;98430.88;;;24.69;90.79
20350;BME280;10332;50.208;18.988;2023-08-20T05:39:44;98422.31;;;24.74;90.37
20350;BME280;10332;50.208;18.988;2023-08-20T05:42:12;98422.84;;;24.84;89.69
20350;BME280;10332;50.208;18.988;2023-08-20T05:44:39;98423.56;;;24.92;89.07
20350;BME280;10332;50.208;18.988;2023-08-20T05:47:07;98427.97;;;25.00;88.93
20350;BME280;10332;50.208;18.988;2023-08-20T05:49:34;98425.97;;;25.02;88.60
20350;BME280;10332;50.208;18.988;2023-08-20T05:52:02;98427.22;;;25.06;88.73
20350;BME280;10332;50.208;18.988;2023-08-20T05:54:29;98436.56;;;25.10;88.68
20350;BME280;10332;50.208;18.988;2023-08-20T05:56:58;98428.16;;;25.13;88.72
20350;BME280;10332;50.208;18.988;2023-08-20T05:59:26;98435.66;;;25.25;88.26
20350;BME280;10332;50.208;18.988;2023-08-20T06:01:53;98433.97;;;25.38;87.46
20350;BME280;10332;50.208;18.988;2023-08-20T06:04:22;98438.34;;;25.46;87.21
20350;BME280;10332;50.208;18.988;2023-08-20T06:06:49;98439.63;;;25.50;87.05
20350;BME280;10332;50.208;18.988;2023-08-20T06:09:17;98437.22;;;25.55;86.75
20350;BME280;10332;50.208;18.988;2023-08-20T06:11:44;98435.44;;;25.62;86.20
20350;BME280;10332;50.208;18.988;2023-08-20T06:14:12;98436.50;;;25.68;86.01
20350;BME280;10332;50.208;18.988;2023-08-20T06:16:39;98448.81;;;25.84;85.66
20350;BME280;10332;50.208;18.988;2023-08-20T06:19:07;98439.88;;;25.98;85.14
20350;BME280;10332;50.208;18.988;2023-08-20T06:21:34;98443.41;;;26.05;84.43
20350;BME280;10332;50.208;18.988;2023-08-20T06:24:02;98445.56;;;26.16;83.97
20350;BME280;10332;50.208;18.988;2023-08-20T06:26:30;98444.34;;;26.19;83.93
20350;BME280;10332;50.208;18.988;2023-08-20T06:28:57;98445.50;;;26.10;84.26
20350;BME280;10332;50.208;18.988;2023-08-20T06:31:25;98455.00;;;26.12;84.27
20350;BME280;10332;50.208;18.988;2023-08-20T06:33:53;98450.81;;;26.31;83.68
20350;BME280;10332;50.208;18.988;2023-08-20T06:36:20;98446.25;;;26.53;83.10
20350;BME280;10332;50.208;18.988;2023-08-20T06:38:47;98445.44;;;26.59;82.59
20350;BME280;10332;50.208;18.988;2023-08-20T06:41:15;98442.56;;;26.61;82.78
20350;BME280;10332;50.208;18.988;2023-08-20T06:43:42;98448.16;;;26.66;82.54
20350;BME280;10332;50.208;18.988;2023-08-20T06:46:10;98445.69;;;26.64;82.64
20350;BME280;10332;50.208;18.988;2023-08-20T06:48:37;98445.63;;;26.99;81.51
20350;BME280;10332;50.208;18.988;2023-08-20T06:51:12;98447.38;;;27.26;80.94
20350;BME280;10332;50.208;18.988;2023-08-20T06:53:41;98446.59;;;27.59;80.04
20350;BME280;10332;50.208;18.988;2023-08-20T06:56:09;98452.25;;;27.90;78.75
20350;BME280;10332;50.208;18.988;2023-08-20T06:58:38;98449.75;;;28.22;78.47
20350;BME280;10332;50.208;18.988;2023-08-20T07:01:07;98454.91;;;28.43;77.12
20350;BME280;10332;50.208;18.988;2023-08-20T07:03:40;98456.94;;;28.54;76.58
20350;BME280;10332;50.208;18.988;2023-08-20T07:06:09;98455.06;;;28.62;75.81
20350;BME280;10332;50.208;18.988;2023-08-20T07:08:40;98455.47;;;28.65;74.62
20350;BME280;10332;50.208;18.988;2023-08-20T07:11:08;98457.31;;;28.71;74.42
20350;BME280;10332;50.208;18.988;2023-08-20T07:13:36;98459.38;;;28.76;74.83
20350;BME280;10332;50.208;18.988;2023-08-20T07:16:04;98456.03;;;28.80;74.78
20350;BME280;10332;50.208;18.988;2023-08-20T07:18:32;98456.03;;;28.87;74.44
20350;BME280;10332;50.208;18.988;2023-08-20T07:20:59;98462.63;;;28.91;74.03
20350;BME280;10332;50.208;18.988;2023-08-20T07:23:27;98464.50;;;28.97;73.46
20350;BME280;10332;50.208;18.988;2023-08-20T07:26:10;98461.34;;;29.00;73.49
20350;BME280;10332;50.208;18.988;2023-08-20T07:28:40;98461.31;;;29.14;73.33
20350;BME280;10332;50.208;18.988;2023-08-20T07:31:31;98471.72;;;29.03;72.95
20350;BME280;10332;50.208;18.988;2023-08-20T07:34:01;98468.75;;;29.11;72.61
20350;BME280;10332;50.208;18.988;2023-08-20T07:36:32;98463.34;;;29.18;72.33
20350;BME280;10332;50.208;18.988;2023-08-20T07:39:00;98469.75;;;29.24;72.30
20350;BME280;10332;50.208;18.988;2023-08-20T07:41:29;98455.81;;;29.33;72.29
20350;BME280;10332;50.208;18.988;2023-08-20T07:43:57;98467.03;;;29.30;71.74
20350;BME280;10332;50.208;18.988;2023-08-20T07:46:25;98465.28;;;29.43;71.80
20350;BME280;10332;50.208;18.988;2023-08-20T07:48:52;98470.19;;;29.59;70.74
20350;BME280;10332;50.208;18.988;2023-08-20T07:51:20;98473.22;;;29.69;70.77
20350;BME280;10332;50.208;18.988;2023-08-20T07:53:47;98473.34;;;29.81;70.51
20350;BME280;10332;50.208;18.988;2023-08-20T07:56:15;98471.97;;;29.96;70.40
20350;BME280;10332;50.208;18.988;2023-08-20T07:58:42;98469.59;;;30.13;69.88
20350;BME280;10332;50.208;18.988;2023-08-20T08:01:10;98474.97;;;30.13;70.02
20350;BME280;10332;50.208;18.988;2023-08-20T08:03:37;98475.00;;;30.32;69.56
20350;BME280;10332;50.208;18.988;2023-08-20T08:06:05;98479.91;;;30.16;68.61
20350;BME280;10332;50.208;18.988;2023-08-20T08:08:32;98478.19;;;30.47;68.08
20350;BME280;10332;50.208;18.988;2023-08-20T08:11:00;98483.16;;;30.68;67.74
20350;BME280;10332;50.208;18.988;2023-08-20T08:13:27;98483.16;;;30.87;67.38
20350;BME280;10332;50.208;18.988;2023-08-20T08:15:55;98478.25;;;30.84;67.06
20350;BME280;10332;50.208;18.988;2023-08-20T08:18:22;98485.38;;;31.08;66.21
20350;BME280;10332;50.208;18.988;2023-08-20T08:20:50;98480.81;;;31.27;66.25
20350;BME280;10332;50.208;18.988;2023-08-20T08:23:17;98486.16;;;31.45;65.53
20350;BME280;10332;50.208;18.988;2023-08-20T08:25:45;98481.88;;;31.56;65.05
20350;BME280;10332;50.208;18.988;2023-08-20T08:28:13;98488.00;;;31.63;64.17
20350;BME280;10332;50.208;18.988;2023-08-20T08:30:40;98489.16;;;31.85;64.42
20350;BME280;10332;50.208;18.988;2023-08-20T08:33:08;98485.66;;;32.08;63.84
20350;BME280;10332;50.208;18.988;2023-08-20T08:35:36;98484.88;;;32.31;63.63
20350;BME280;10332;50.208;18.988;2023-08-20T08:38:03;98485.47;;;32.57;63.04
20350;BME280;10332;50.208;18.988;2023-08-20T08:40:33;98485.41;;;32.80;62.41
20350;BME280;10332;50.208;18.988;2023-08-20T08:43:02;98477.75;;;33.00;61.32
20350;BME280;10332;50.208;18.988;2023-08-20T08:45:30;98483.69;;;33.26;60.87
20350;BME280;10332;50.208;18.988;2023-08-20T08:48:02;98487.47;;;33.53;60.32
20350;BME280;10332;50.208;18.988;2023-08-20T08:50:32;98481.78;;;33.83;58.97
20350;BME280;10332;50.208;18.988;2023-08-20T08:52:59;98480.66;;;34.13;57.90
20350;BME280;10332;50.208;18.988;2023-08-20T08:55:28;98490.59;;;34.41;57.05
20350;BME280;10332;50.208;18.988;2023-08-20T08:57:55;98496.78;;;34.75;56.82
20350;BME280;10332;50.208;18.988;2023-08-20T09:00:23;98496.50;;;34.93;53.82
20350;BME280;10332;50.208;18.988;2023-08-20T09:02:50;98494.97;;;35.24;53.27
20350;BME280;10332;50.208;18.988;2023-08-20T09:05:18;98499.13;;;35.54;51.99
20350;BME280;10332;50.208;18.988;2023-08-20T09:07:45;98493.53;;;35.93;51.69
20350;BME280;10332;50.208;18.988;2023-08-20T09:10:16;98493.78;;;36.23;49.98
20350;BME280;10332;50.208;18.988;2023-08-20T09:12:48;98487.84;;;36.74;49.99
20350;BME280;10332;50.208;18.988;2023-08-20T09:15:15;98496.09;;;37.62;48.27
20350;BME280;10332;50.208;18.988;2023-08-20T09:17:43;98511.94;;;38.61;44.96
20350;BME280;10332;50.208;18.988;2023-08-20T09:20:11;98508.97;;;39.38;42.83
20350;BME280;10332;50.208;18.988;2023-08-20T09:22:38;98511.41;;;41.48;39.08
20350;BME280;10332;50.208;18.988;2023-08-20T09:25:06;98518.28;;;42.67;36.21
20350;BME280;10332;50.208;18.988;2023-08-20T09:27:39;98521.91;;;44.17;35.65
20350;BME280;10332;50.208;18.988;2023-08-20T09:30:10;98528.78;;;46.81;33.40
20350;BME280;10332;50.208;18.988;2023-08-20T09:32:44;98544.97;;;49.15;29.25
20350;BME280;10332;50.208;18.988;2023-08-20T09:35:18;98540.31;;;51.89;27.10
20350;BME280;10332;50.208;18.988;2023-08-20T09:37:46;98548.75;;;55.09;22.82
20350;BME280;10332;50.208;18.988;2023-08-20T09:40:14;98563.44;;;57.02;19.41
20350;BME280;10332;50.208;18.988;2023-08-20T09:42:43;98549.44;;;51.00;23.32
20350;BME280;10332;50.208;18.988;2023-08-20T09:45:11;98543.09;;;49.56;25.30
20350;BME280;10332;50.208;18.988;2023-08-20T09:47:43;98552.41;;;55.83;20.61
20350;BME280;10332;50.208;18.988;2023-08-20T09:50:12;98555.44;;;59.17;18.81
20350;BME280;10332;50.208;18.988;2023-08-20T09:53:12;98556.97;;;61.61;17.51
20350;BME280;10332;50.208;18.988;2023-08-20T09:55:38;98551.13;;;61.88;14.28
20350;BME280;10332;50.208;18.988;2023-08-20T09:58:06;98558.13;;;63.30;14.30
20350;BME280;10332;50.208;18.988;2023-08-20T10:00:35;98546.84;;;64.10;12.65
20350;BME280;10332;50.208;18.988;2023-08-20T10:03:02;98544.97;;;63.36;13.67
20350;BME280;10332;50.208;18.988;2023-08-20T10:05:31;98542.59;;;64.65;13.18
20350;BME280;10332;50.208;18.988;2023-08-20T10:08:00;98529.69;;;63.17;14.83
20350;BME280;10332;50.208;18.988;2023-08-20T10:10:29;98503.94;;;55.86;19.01
20350;BME280;10332;50.208;18.988;2023-08-20T10:12:57;98491.84;;;54.98;19.54
20350;BME280;10332;50.208;18.988;2023-08-20T10:15:25;98483.63;;;52.24;19.55
20350;BME280;10332;50.208;18.988;2023-08-20T10:17:57;98471.22;;;48.90;22.64
20350;BME280;10332;50.208;18.988;2023-08-20T10:20:29;98471.69;;;51.81;20.85
20350;BME280;10332;50.208;18.988;2023-08-20T10:23:02;98472.56;;;54.82;18.27
20350;BME280;10332;50.208;18.988;2023-08-20T10:25:30;98473.59;;;52.92;19.34
20350;BME280;10332;50.208;18.988;2023-08-20T10:28:24;98475.06;;;53.09;19.78
20350;BME280;10332;50.208;18.988;2023-08-20T10:31:12;98469.28;;;53.21;19.49
20350;BME280;10332;50.208;18.988;2023-08-20T10:33:56;98467.19;;;51.96;20.00
20350;BME280;10332;50.208;18.988;2023-08-20T10:36:25;98464.72;;;50.82;21.05
20350;BME280;10332;50.208;18.988;2023-08-20T10:38:56;98446.13;;;48.50;22.75
20350;BME280;10332;50.208;18.988;2023-08-20T10:41:29;98450.94;;;47.00;24.07
20350;BME280;10332;50.208;18.988;2023-08-20T10:43:59;98444.81;;;46.09;25.25
20350;BME280;10332;50.208;18.988;2023-08-20T10:46:28;98451.50;;;48.22;24.17
20350;BME280;10332;50.208;18.988;2023-08-20T10:49:02;98449.16;;;48.81;24.08
20350;BME280;10332;50.208;18.988;2023-08-20T10:51:38;98455.78;;;47.86;24.63
20350;BME280;10332;50.208;18.988;2023-08-20T10:54:08;98440.59;;;46.58;25.82
20350;BME280;10332;50.208;18.988;2023-08-20T10:56:47;98435.94;;;45.34;26.50
20350;BME280;10332;50.208;18.988;2023-08-20T10:59:29;98438.31;;;45.01;26.63
20350;BME280;10332;50.208;18.988;2023-08-20T11:02:01;98445.25;;;47.79;23.86
20350;BME280;10332;50.208;18.988;2023-08-20T11:04:30;98443.19;;;49.72;21.74
20350;BME280;10332;50.208;18.988;2023-08-20T11:07:02;98449.19;;;51.93;20.43
20350;BME280;10332;50.208;18.988;2023-08-20T11:09:31;98443.53;;;53.38;19.85
20350;BME280;10332;50.208;18.988;2023-08-20T11:11:59;98449.16;;;52.36;20.19
20350;BME280;10332;50.208;18.988;2023-08-20T11:14:27;98439.28;;;49.89;20.84
20350;BME280;10332;50.208;18.988;2023-08-20T11:16:54;98430.81;;;47.53;22.04
20350;BME280;10332;50.208;18.988;2023-08-20T11:19:23;98426.44;;;46.81;23.23
20350;BME280;10332;50.208;18.988;2023-08-20T11:21:51;98421.00;;;46.34;24.25
20350;BME280;10332;50.208;18.988;2023-08-20T11:24:19;98419.38;;;45.43;24.75
20350;BME280;10332;50.208;18.988;2023-08-20T11:26:48;98421.66;;;45.32;25.37
20350;BME280;10332;50.208;18.988;2023-08-20T11:29:16;98428.59;;;45.12;25.20
20350;BME280;10332;50.208;18.988;2023-08-20T11:31:48;98418.63;;;44.68;25.65
20350;BME280;10332;50.208;18.988;2023-08-20T11:34:18;98420.38;;;44.24;25.97
20350;BME280;10332;50.208;18.988;2023-08-20T11:36:46;98428.78;;;43.97;26.50
20350;BME280;10332;50.208;18.988;2023-08-20T11:39:15;98411.53;;;43.82;27.05
20350;BME280;10332;50.208;18.988;2023-08-20T11:41:44;98408.63;;;43.65;27.13
20350;BME280;10332;50.208;18.988;2023-08-20T11:44:19;98424.47;;;43.37;27.25
20350;BME280;10332;50.208;18.988;2023-08-20T11:46:49;98418.22;;;42.82;27.02
20350;BME280;10332;50.208;18.988;2023-08-20T11:49:16;98416.22;;;42.60;26.93
20350;BME280;10332;50.208;18.988;2023-08-20T11:51:48;98414.88;;;42.43;27.16
20350;BME280;10332;50.208;18.988;2023-08-20T11:54:18;98407.75;;;41.82;27.77
20350;BME280;10332;50.208;18.988;2023-08-20T11:56:52;98403.09;;;41.64;27.99
20350;BME280;10332;50.208;18.988;2023-08-20T11:59:37;98398.47;;;41.46;27.22
20350;BME280;10332;50.208;18.988;2023-08-20T12:02:05;98404.75;;;41.27;27.94
20350;BME280;10332;50.208;18.988;2023-08-20T12:04:32;98392.16;;;41.07;28.70
20350;BME280;10332;50.208;18.988;2023-08-20T12:07:03;98395.94;;;40.93;29.12
20350;BME280;10332;50.208;18.988;2023-08-20T12:09:35;98402.28;;;40.88;29.46
20350;BME280;10332;50.208;18.988;2023-08-20T12:12:06;98400.03;;;40.71;29.30
20350;BME280;10332;50.208;18.988;2023-08-20T12:14:35;98395.97;;;40.16;29.40
20350;BME280;10332;50.208;18.988;2023-08-20T12:17:03;98398.38;;;39.93;29.57
20350;BME280;10332;50.208;18.988;2023-08-20T12:19:31;98384.09;;;40.02;29.87
20350;BME280;10332;50.208;18.988;2023-08-20T12:21:58;98392.03;;;40.27;30.13
20350;BME280;10332;50.208;18.988;2023-08-20T12:24:26;98395.41;;;40.43;30.10
20350;BME280;10332;50.208;18.988;2023-08-20T12:26:53;98397.38;;;40.13;30.45
20350;BME280;10332;50.208;18.988;2023-08-20T12:29:21;98399.44;;;40.26;30.77
20350;BME280;10332;50.208;18.988;2023-08-20T12:31:48;98400.94;;;40.38;31.08
20350;BME280;10332;50.208;18.988;2023-08-20T12:34:16;98396.88;;;40.59;31.08
20350;BME280;10332;50.208;18.988;2023-08-20T12:36:43;98397.22;;;40.76;31.12
20350;BME280;10332;50.208;18.988;2023-08-20T12:39:11;98394.50;;;40.95;31.37
20350;BME280;10332;50.208;18.988;2023-08-20T12:41:38;98394.81;;;41.12;31.29
20350;BME280;10332;50.208;18.988;2023-08-20T12:44:06;98406.09;;;41.11;30.88
20350;BME280;10332;50.208;18.988;2023-08-20T12:46:34;98392.53;;;40.77;31.30
20350;BME280;10332;50.208;18.988;2023-08-20T12:49:01;98397.53;;;40.51;31.49
20350;BME280;10332;50.208;18.988;2023-08-20T12:51:29;98386.19;;;40.34;31.74
20350;BME280;10332;50.208;18.988;2023-08-20T12:53:56;98388.38;;;40.37;31.36
20350;BME280;10332;50.208;18.988;2023-08-20T12:56:24;98389.69;;;40.39;31.14
20350;BME280;10332;50.208;18.988;2023-08-20T12:58:51;98384.66;;;40.27;31.08
20350;BME280;10332;50.208;18.988;2023-08-20T13:01:19;98389.13;;;40.18;31.05
20350;BME280;10332;50.208;18.988;2023-08-20T13:03:47;98391.78;;;40.23;31.19